createdAt,value
2019-01-13T00:00:22.553Z,7.30
2019-01-13T00:02:51.139Z,7.77
2019-01-13T00:05:19.689Z,7.03
2019-01-13T00:07:48.319Z,7.23
2019-01-13T00:10:16.877Z,8.87
2019-01-13T00:12:45.529Z,7.50
2019-01-13T00:15:14.225Z,10.10
2019-01-13T00:17:42.812Z,8.97
2019-01-13T00:20:12.295Z,8.83
2019-01-13T00:22:40.885Z,10.40
2019-01-13T00:25:09.662Z,7.07
2019-01-13T00:27:38.240Z,6.10
2019-01-13T00:30:19.173Z,8.07
2019-01-13T00:32:45.094Z,7.20
2019-01-13T00:35:13.712Z,5.47
2019-01-13T00:37:42.300Z,5.70
2019-01-13T00:40:13.861Z,7.13
2019-01-13T00:42:42.455Z,4.80
2019-01-13T00:45:12.844Z,4.60
2019-01-13T00:47:41.437Z,5.07
2019-01-13T00:50:12.594Z,4.53
2019-01-13T00:52:41.253Z,4.97
2019-01-13T00:55:11.749Z,5.17
2019-01-13T00:57:40.339Z,4.50
2019-01-13T01:00:26.561Z,5.00
2019-01-13T01:02:51.116Z,5.23
2019-01-13T01:05:19.875Z,6.20
2019-01-13T01:07:50.572Z,8.50
2019-01-13T01:10:20.195Z,10.13
2019-01-13T01:12:48.820Z,7.27
2019-01-13T01:15:17.617Z,6.50
2019-01-13T01:17:46.308Z,6.67
2019-01-13T01:20:16.340Z,10.33
2019-01-13T01:22:44.964Z,7.00
2019-01-13T01:25:16.293Z,5.67
2019-01-13T01:27:45.494Z,7.40
2019-01-13T01:30:16.605Z,7.43
2019-01-13T01:32:45.802Z,7.03
2019-01-13T01:35:14.525Z,9.40
2019-01-13T01:37:43.219Z,7.93
2019-01-13T01:40:14.732Z,9.47
2019-01-13T01:42:43.356Z,7.90
2019-01-13T01:45:13.781Z,12.73
2019-01-13T01:47:42.412Z,11.93
2019-01-13T01:50:12.627Z,8.73
2019-01-13T01:52:41.444Z,8.73
2019-01-13T01:55:17.743Z,9.80
2019-01-13T01:57:46.532Z,8.87
2019-01-13T02:00:17.821Z,14.87
2019-01-13T02:02:46.620Z,9.77
2019-01-13T02:05:15.324Z,9.80
2019-01-13T02:07:43.916Z,11.20
2019-01-13T02:10:17.477Z,9.53
2019-01-13T02:12:46.158Z,9.47
2019-01-13T02:15:17.681Z,9.77
2019-01-13T02:17:46.376Z,13.97
2019-01-13T02:20:17.604Z,8.53
2019-01-13T02:22:46.897Z,10.03
2019-01-13T02:25:18.267Z,8.93
2019-01-13T02:27:46.990Z,10.03
2019-01-13T02:30:18.182Z,9.80
2019-01-13T02:32:46.904Z,9.83
2019-01-13T02:35:15.532Z,9.13
2019-01-13T02:37:44.293Z,11.47
2019-01-13T02:40:15.096Z,12.00
2019-01-13T02:42:43.916Z,13.53
2019-01-13T02:45:23.633Z,12.67
2019-01-13T02:47:52.387Z,7.77
2019-01-13T02:50:20.909Z,8.97
2019-01-13T02:52:49.737Z,8.77
2019-01-13T02:55:18.361Z,12.20
2019-01-13T02:57:47.012Z,10.90
2019-01-13T03:00:18.276Z,9.50
2019-01-13T03:02:46.941Z,9.17
2019-01-13T03:05:15.739Z,10.03
2019-01-13T03:07:44.464Z,9.13
2019-01-13T03:10:15.917Z,9.70
2019-01-13T03:12:44.571Z,8.37
2019-01-13T03:15:19.354Z,9.67
2019-01-13T03:17:46.428Z,9.37
2019-01-13T03:20:15.420Z,12.03
2019-01-13T03:22:44.126Z,10.40
2019-01-13T03:25:14.473Z,11.07
2019-01-13T03:27:43.199Z,11.23
2019-01-13T03:30:14.895Z,11.10
2019-01-13T03:32:43.477Z,11.33
2019-01-13T03:35:12.270Z,9.00
2019-01-13T03:37:40.929Z,10.33
2019-01-13T03:40:17.634Z,10.23
2019-01-13T03:42:46.761Z,12.57
2019-01-13T03:45:15.445Z,9.57
2019-01-13T03:47:44.108Z,10.03
2019-01-13T03:50:15.463Z,8.77
2019-01-13T03:52:52.475Z,14.27
2019-01-13T03:55:15.721Z,12.67
2019-01-13T03:57:44.400Z,10.23
2019-01-13T04:00:18.252Z,9.43
2019-01-13T04:02:47.069Z,9.77
2019-01-13T04:05:15.774Z,11.00
2019-01-13T04:07:44.509Z,9.90
2019-01-13T04:10:15.098Z,12.60
2019-01-13T04:12:43.820Z,12.13
2019-01-13T04:15:27.355Z,10.53
2019-01-13T04:17:56.967Z,9.60
2019-01-13T04:20:25.532Z,10.47
2019-01-13T04:22:54.130Z,11.30
2019-01-13T04:25:22.688Z,11.10
2019-01-13T04:27:51.243Z,11.20
2019-01-13T04:30:19.899Z,11.33
2019-01-13T04:32:48.456Z,10.10
2019-01-13T04:35:17.048Z,10.63
2019-01-13T04:37:45.617Z,11.50
2019-01-13T04:40:14.433Z,11.50
2019-01-13T04:42:42.988Z,12.10
2019-01-13T04:45:12.015Z,12.27
2019-01-13T04:47:40.640Z,9.97
2019-01-13T04:50:16.445Z,10.20
2019-01-13T04:52:45.065Z,9.47
2019-01-13T04:55:13.891Z,14.80
2019-01-13T04:57:42.588Z,10.87
2019-01-13T05:00:16.840Z,11.00
2019-01-13T05:02:45.469Z,15.03
2019-01-13T05:05:14.129Z,9.63
2019-01-13T05:07:42.752Z,12.43
2019-01-13T05:10:19.088Z,11.27
2019-01-13T05:12:47.715Z,9.27
2019-01-13T05:15:16.947Z,9.97
2019-01-13T05:17:45.635Z,9.80
2019-01-13T05:20:15.957Z,9.70
2019-01-13T05:22:44.752Z,13.60
2019-01-13T05:25:13.471Z,11.87
2019-01-13T05:27:42.100Z,10.53
2019-01-13T05:30:18.831Z,14.13
2019-01-13T05:32:47.523Z,12.47
2019-01-13T05:35:16.256Z,14.60
2019-01-13T05:37:45.288Z,13.20
2019-01-13T05:40:20.520Z,12.53
2019-01-13T05:42:49.057Z,10.63
2019-01-13T05:45:18.571Z,13.17
2019-01-13T05:47:47.780Z,14.30
2019-01-13T05:50:17.505Z,15.83
2019-01-13T05:52:47.476Z,10.67
2019-01-13T05:55:16.308Z,14.30
2019-01-13T05:57:44.933Z,14.40
2019-01-13T06:00:16.674Z,16.83
2019-01-13T06:02:45.352Z,12.67
2019-01-13T06:05:14.159Z,12.03
2019-01-13T06:07:42.884Z,10.07
2019-01-13T06:10:14.515Z,13.07
2019-01-13T06:12:43.099Z,10.13
2019-01-13T06:15:16.801Z,8.93
2019-01-13T06:17:45.524Z,7.97
2019-01-13T06:20:16.988Z,12.17
2019-01-13T06:22:45.707Z,7.67
2019-01-13T06:25:14.349Z,9.57
2019-01-13T06:27:43.165Z,6.07
2019-01-13T06:30:14.452Z,6.07
2019-01-13T06:32:43.040Z,4.93
2019-01-13T06:35:11.735Z,6.57
2019-01-13T06:37:40.389Z,4.40
2019-01-13T06:40:12.244Z,4.63
2019-01-13T06:42:40.905Z,3.57
2019-01-13T06:45:12.366Z,5.20
2019-01-13T06:47:41.020Z,4.97
2019-01-13T06:50:12.316Z,3.40
2019-01-13T06:52:40.961Z,4.27
2019-01-13T06:55:10.071Z,6.97
2019-01-13T06:57:38.714Z,3.57
2019-01-13T07:00:16.331Z,3.07
2019-01-13T07:02:44.983Z,3.27
2019-01-13T07:05:13.775Z,4.50
2019-01-13T07:07:42.497Z,2.10
2019-01-13T07:10:12.488Z,3.30
2019-01-13T07:12:41.223Z,1.80
2019-01-13T07:15:12.580Z,3.33
2019-01-13T07:17:41.409Z,3.83
2019-01-13T07:20:12.205Z,2.93
2019-01-13T07:22:40.791Z,2.73
2019-01-13T07:25:09.418Z,1.90
2019-01-13T07:27:38.006Z,3.70
2019-01-13T07:30:12.483Z,1.60
2019-01-13T07:32:41.078Z,2.03
2019-01-13T07:35:09.770Z,2.13
2019-01-13T07:37:38.353Z,2.80
2019-01-13T07:40:12.681Z,1.50
2019-01-13T07:42:41.273Z,1.80
2019-01-13T07:45:12.465Z,3.63
2019-01-13T07:47:41.187Z,1.87
2019-01-13T07:50:12.380Z,2.40
2019-01-13T07:52:40.956Z,1.77
2019-01-13T07:55:12.324Z,2.17
2019-01-13T07:57:40.907Z,2.43
2019-01-13T08:00:12.544Z,2.00
2019-01-13T08:02:41.199Z,2.60
2019-01-13T08:05:09.829Z,2.63
2019-01-13T08:07:38.462Z,1.27
2019-01-13T08:10:10.500Z,1.67
2019-01-13T08:12:39.068Z,1.60
2019-01-13T08:15:11.189Z,1.43
2019-01-13T08:17:39.804Z,1.40
2019-01-13T08:20:14.197Z,1.33
2019-01-13T08:22:42.895Z,0.90
2019-01-13T08:25:11.635Z,2.20
2019-01-13T08:27:40.185Z,5.17
2019-01-13T08:30:12.078Z,2.07
2019-01-13T08:32:40.635Z,1.83
2019-01-13T08:35:09.356Z,1.43
2019-01-13T08:37:38.047Z,2.10
2019-01-13T08:40:09.708Z,2.50
2019-01-13T08:42:38.338Z,1.70
2019-01-13T08:45:09.263Z,1.73
2019-01-13T08:47:37.973Z,0.83
2019-01-13T08:50:09.646Z,0.60
2019-01-13T08:52:38.355Z,1.10
2019-01-13T08:55:09.176Z,0.83
2019-01-13T08:57:37.792Z,1.43
2019-01-13T09:00:12.190Z,1.57
2019-01-13T09:02:40.822Z,1.83
2019-01-13T09:05:09.644Z,0.90
2019-01-13T09:07:38.198Z,3.03
2019-01-13T09:10:09.855Z,2.13
2019-01-13T09:12:38.409Z,2.67
2019-01-13T09:15:10.069Z,2.10
2019-01-13T09:17:38.912Z,2.53
2019-01-13T09:20:13.597Z,1.87
2019-01-13T09:22:42.219Z,1.53
2019-01-13T09:25:10.936Z,3.50
2019-01-13T09:27:39.497Z,4.50
2019-01-13T09:30:14.422Z,2.33
2019-01-13T09:32:42.980Z,2.83
2019-01-13T09:35:11.708Z,3.13
2019-01-13T09:37:40.341Z,1.90
2019-01-13T09:40:15.166Z,3.27
2019-01-13T09:42:43.800Z,1.97
2019-01-13T09:45:12.997Z,2.03
2019-01-13T09:47:41.616Z,2.13
2019-01-13T09:50:13.378Z,2.43
2019-01-13T09:52:42.275Z,2.40
2019-01-13T09:55:13.833Z,1.90
2019-01-13T09:57:42.488Z,2.10
2019-01-13T10:00:25.157Z,3.03
2019-01-13T10:02:53.858Z,2.17
2019-01-13T10:05:22.403Z,2.43
2019-01-13T10:07:51.132Z,2.13
2019-01-13T10:10:19.829Z,3.63
2019-01-13T10:12:48.555Z,2.00
2019-01-13T10:15:22.215Z,2.30
2019-01-13T10:17:50.932Z,3.10
2019-01-13T10:20:19.550Z,2.90
2019-01-13T10:22:48.285Z,2.30
2019-01-13T10:25:17.171Z,2.90
2019-01-13T10:27:45.894Z,2.20
2019-01-13T10:30:25.610Z,4.13
2019-01-13T10:32:54.976Z,2.73
2019-01-13T10:35:24.353Z,3.33
2019-01-13T10:37:53.449Z,4.63
2019-01-13T10:40:24.616Z,3.10
2019-01-13T10:42:53.551Z,2.57
2019-01-13T10:45:22.227Z,2.17
2019-01-13T10:47:50.879Z,2.10
2019-01-13T10:50:27.335Z,2.30
2019-01-13T10:52:57.955Z,2.53
2019-01-13T10:55:26.748Z,2.50
2019-01-13T10:57:55.396Z,2.97
2019-01-13T11:00:29.401Z,3.77
2019-01-13T11:03:02.290Z,3.33
2019-01-13T11:05:28.578Z,2.90
2019-01-13T11:07:57.401Z,2.27
2019-01-13T11:10:26.017Z,3.90
2019-01-13T11:12:54.677Z,3.17
2019-01-13T11:15:23.366Z,3.13
2019-01-13T11:17:52.026Z,2.70
2019-01-13T11:20:23.115Z,3.57
2019-01-13T11:22:51.845Z,3.07
2019-01-13T11:25:20.468Z,2.50
2019-01-13T11:27:49.119Z,2.67
2019-01-13T11:30:19.813Z,2.40
2019-01-13T11:32:48.472Z,2.77
2019-01-13T11:35:17.008Z,4.00
2019-01-13T11:37:45.842Z,4.47
2019-01-13T11:40:17.106Z,4.30
2019-01-13T11:42:45.786Z,3.27
2019-01-13T11:45:14.580Z,2.63
2019-01-13T11:47:43.275Z,2.50
2019-01-13T11:50:14.496Z,2.50
2019-01-13T11:52:43.186Z,3.77
2019-01-13T11:55:14.843Z,5.60
2019-01-13T11:57:43.631Z,4.53
2019-01-13T12:00:17.893Z,5.23
2019-01-13T12:02:46.525Z,2.90
2019-01-13T12:05:15.943Z,3.03
2019-01-13T12:07:45.525Z,3.07
2019-01-13T12:10:19.059Z,12.67
2019-01-13T12:12:48.044Z,2.60
2019-01-13T12:15:18.871Z,4.73
2019-01-13T12:17:47.563Z,2.80
2019-01-13T12:20:20.858Z,2.40
2019-01-13T12:22:49.884Z,4.77
2019-01-13T12:25:20.440Z,3.67
2019-01-13T12:27:49.148Z,2.43
2019-01-13T12:30:29.239Z,2.43
2019-01-13T12:32:58.524Z,3.53
2019-01-13T12:35:27.412Z,3.27
2019-01-13T12:37:56.167Z,2.53
2019-01-13T12:40:27.095Z,3.80
2019-01-13T12:42:55.798Z,4.33
2019-01-13T12:45:24.716Z,3.40
2019-01-13T12:47:53.412Z,4.13
2019-01-13T12:50:23.933Z,4.50
2019-01-13T12:52:52.473Z,4.80
2019-01-13T12:55:21.120Z,4.27
2019-01-13T12:57:49.682Z,5.77
2019-01-13T13:00:20.101Z,3.60
2019-01-13T13:02:48.813Z,3.20
2019-01-13T13:05:18.232Z,4.60
2019-01-13T13:07:47.226Z,4.67
2019-01-13T13:10:21.560Z,7.03
2019-01-13T13:12:50.253Z,3.63
2019-01-13T13:15:18.892Z,4.07
2019-01-13T13:17:47.576Z,5.13
2019-01-13T13:20:16.699Z,4.40
2019-01-13T13:22:45.321Z,2.33
2019-01-13T13:25:15.243Z,3.23
2019-01-13T13:27:43.801Z,3.67
2019-01-13T13:30:21.602Z,3.23
2019-01-13T13:32:50.223Z,5.60
2019-01-13T13:35:18.861Z,3.60
2019-01-13T13:37:47.954Z,5.53
2019-01-13T13:40:22.341Z,4.13
2019-01-13T13:42:50.890Z,3.47
2019-01-13T13:45:19.608Z,4.27
2019-01-13T13:47:49.199Z,7.90
2019-01-13T13:50:20.418Z,5.30
2019-01-13T13:52:49.035Z,5.63
2019-01-13T13:55:17.751Z,5.13
2019-01-13T13:57:46.407Z,6.80
2019-01-13T14:00:25.580Z,3.90
2019-01-13T14:02:54.228Z,6.03
2019-01-13T14:05:23.021Z,4.43
2019-01-13T14:07:51.610Z,4.77
2019-01-13T14:10:25.948Z,6.20
2019-01-13T14:12:54.607Z,6.30
2019-01-13T14:15:23.157Z,4.60
2019-01-13T14:17:51.727Z,4.50
2019-01-13T14:20:20.503Z,4.30
2019-01-13T14:22:49.091Z,6.23
2019-01-13T14:25:17.707Z,6.43
2019-01-13T14:27:46.285Z,4.17
2019-01-13T14:30:20.749Z,5.43
2019-01-13T14:32:49.471Z,6.60
2019-01-13T14:35:18.261Z,7.50
2019-01-13T14:37:46.986Z,5.77
2019-01-13T14:40:23.309Z,5.20
2019-01-13T14:42:52.025Z,5.90
2019-01-13T14:45:24.829Z,6.00
2019-01-13T14:47:53.487Z,6.07
2019-01-13T14:50:24.265Z,6.30
2019-01-13T14:52:53.280Z,5.37
2019-01-13T14:55:21.913Z,5.90
2019-01-13T14:57:50.556Z,4.63
2019-01-13T15:00:21.813Z,7.37
2019-01-13T15:02:50.638Z,6.23
2019-01-13T15:05:19.322Z,7.10
2019-01-13T15:07:48.066Z,6.57
2019-01-13T15:10:24.135Z,6.93
2019-01-13T15:12:53.263Z,8.23
2019-01-13T15:15:22.297Z,6.43
2019-01-13T15:17:50.940Z,5.87
2019-01-13T15:20:21.131Z,5.77
2019-01-13T15:22:51.638Z,7.63
2019-01-13T15:25:23.212Z,5.60
2019-01-13T15:27:51.881Z,6.00
2019-01-13T15:30:22.885Z,8.27
2019-01-13T15:32:51.544Z,6.73
2019-01-13T15:35:20.174Z,4.37
2019-01-13T15:37:48.910Z,5.80
2019-01-13T15:40:19.712Z,5.37
2019-01-13T15:42:48.505Z,4.40
2019-01-13T15:45:17.321Z,4.67
2019-01-13T15:47:46.005Z,3.40
2019-01-13T15:50:23.232Z,4.37
2019-01-13T15:52:51.789Z,4.47
2019-01-13T15:55:20.712Z,5.13
2019-01-13T15:57:49.335Z,4.43
2019-01-13T16:00:26.323Z,5.67
2019-01-13T16:02:54.944Z,5.23
2019-01-13T16:05:23.598Z,3.80
2019-01-13T16:07:52.218Z,4.47
2019-01-13T16:10:22.936Z,7.43
2019-01-13T16:12:51.661Z,5.03
2019-01-13T16:15:20.409Z,3.73
2019-01-13T16:17:49.036Z,4.33
2019-01-13T16:20:34.703Z,4.03
2019-01-13T16:23:03.330Z,4.53
2019-01-13T16:25:32.011Z,3.80
2019-01-13T16:28:00.557Z,6.40
2019-01-13T16:30:31.435Z,4.83
2019-01-13T16:33:00.063Z,5.10
2019-01-13T16:35:28.876Z,6.90
2019-01-13T16:37:57.574Z,4.93
2019-01-13T16:40:26.153Z,6.63
2019-01-13T16:42:54.770Z,7.27
2019-01-13T16:45:23.593Z,4.80
2019-01-13T16:47:52.202Z,5.07
2019-01-13T16:50:22.626Z,4.33
2019-01-13T16:52:53.116Z,5.20
2019-01-13T16:55:22.340Z,4.77
2019-01-13T16:57:51.122Z,5.33
2019-01-13T17:00:24.144Z,3.67
2019-01-13T17:02:52.765Z,4.87
2019-01-13T17:05:22.484Z,3.80
2019-01-13T17:07:51.179Z,3.87
2019-01-13T17:10:21.512Z,4.80
2019-01-13T17:12:50.245Z,2.87
2019-01-13T17:15:24.386Z,4.27
2019-01-13T17:17:52.932Z,4.90
2019-01-13T17:20:22.641Z,3.17
2019-01-13T17:22:51.350Z,3.40
2019-01-13T17:25:24.606Z,2.37
2019-01-13T17:27:53.331Z,1.53
2019-01-13T17:30:24.291Z,4.97
2019-01-13T17:32:52.876Z,3.00
2019-01-13T17:35:21.495Z,3.30
2019-01-13T17:37:51.062Z,4.40
2019-01-13T17:40:22.381Z,1.67
2019-01-13T17:42:51.228Z,3.07
2019-01-13T17:45:27.795Z,3.57
2019-01-13T17:47:56.386Z,2.70
2019-01-13T17:50:26.373Z,2.20
2019-01-13T17:52:55.096Z,2.70
2019-01-13T17:55:28.193Z,3.73
2019-01-13T17:57:56.917Z,1.43
2019-01-13T18:00:34.357Z,1.63
2019-01-13T18:03:24.167Z,2.27
2019-01-13T18:05:52.717Z,2.30
2019-01-13T18:08:21.293Z,1.50
2019-01-13T18:10:49.991Z,2.70
2019-01-13T18:13:18.564Z,1.50
2019-01-13T18:15:47.122Z,3.53
2019-01-13T18:18:15.699Z,1.10
2019-01-13T18:20:44.254Z,2.00
2019-01-13T18:23:12.833Z,2.70
2019-01-13T18:25:41.458Z,1.50
2019-01-13T18:28:10.038Z,4.03
2019-01-13T18:30:38.588Z,2.73
2019-01-13T18:33:07.173Z,1.90
2019-01-13T18:35:35.715Z,1.87
2019-01-13T18:38:04.345Z,1.40
2019-01-13T18:40:33.000Z,2.47
2019-01-13T18:43:01.554Z,1.30
2019-01-13T18:45:30.136Z,1.37
2019-01-13T18:47:58.685Z,2.27
2019-01-13T18:50:27.333Z,1.60
2019-01-13T18:53:07.556Z,2.80
2019-01-13T18:55:36.277Z,1.07
2019-01-13T18:58:05.265Z,1.90
2019-01-13T19:00:34.072Z,1.30
2019-01-13T19:03:02.762Z,1.57
2019-01-13T19:05:31.483Z,0.87
2019-01-13T19:08:00.106Z,1.27
2019-01-13T19:10:46.576Z,1.17
2019-01-13T19:13:33.144Z,0.63
2019-01-13T19:16:01.726Z,2.73
2019-01-13T19:18:30.277Z,1.13
2019-01-13T19:20:58.847Z,1.47
2019-01-13T19:23:29.045Z,0.87
2019-01-13T19:25:57.630Z,1.83
2019-01-13T19:28:26.173Z,3.13
2019-01-13T19:30:54.748Z,0.80
2019-01-13T19:33:23.300Z,1.97
2019-01-13T19:35:51.957Z,2.43
2019-01-13T19:38:20.496Z,2.07
2019-01-13T19:40:49.072Z,1.90
2019-01-13T19:43:18.097Z,2.57
2019-01-13T19:45:46.676Z,5.57
2019-01-13T19:48:15.298Z,2.57
2019-01-13T19:50:43.871Z,1.73
2019-01-13T19:53:12.420Z,2.37
2019-01-13T19:55:41.073Z,1.57
2019-01-13T19:58:09.696Z,2.10
2019-01-13T20:00:38.348Z,6.23
2019-01-13T20:03:07.039Z,2.00
2019-01-13T20:05:35.752Z,3.90
2019-01-13T20:08:04.541Z,2.30
2019-01-13T20:10:33.189Z,2.17
2019-01-13T20:13:01.808Z,1.63
2019-01-13T20:15:30.391Z,2.33
2019-01-13T20:17:58.936Z,2.40
2019-01-13T20:20:27.628Z,2.40
2019-01-13T20:22:56.204Z,2.80
2019-01-13T20:25:24.897Z,2.80
2019-01-13T20:27:53.544Z,1.93
2019-01-13T20:30:25.103Z,3.73
2019-01-13T20:32:53.706Z,7.10
2019-01-13T20:35:22.324Z,3.73
2019-01-13T20:37:50.977Z,3.43
2019-01-13T20:40:19.964Z,4.93
2019-01-13T20:42:48.886Z,2.47
2019-01-13T20:45:30.445Z,4.97
2019-01-13T20:47:58.969Z,3.97
2019-01-13T20:50:27.586Z,3.63
2019-01-13T20:52:56.183Z,7.70
2019-01-13T20:55:24.737Z,4.60
2019-01-13T20:57:53.406Z,7.03
2019-01-13T21:00:26.838Z,4.97
2019-01-13T21:02:55.489Z,4.33
2019-01-13T21:05:26.821Z,4.37
2019-01-13T21:07:55.561Z,5.27
2019-01-13T21:10:24.456Z,2.93
2019-01-13T21:12:53.272Z,3.63
2019-01-13T21:15:24.900Z,5.60
2019-01-13T21:17:57.392Z,6.40
2019-01-13T21:20:23.888Z,4.97
2019-01-13T21:22:52.435Z,5.10
2019-01-13T21:25:21.089Z,8.87
2019-01-13T21:27:49.818Z,3.93
2019-01-13T21:30:21.201Z,4.97
2019-01-13T21:32:49.754Z,5.73
2019-01-13T21:35:18.338Z,7.33
2019-01-13T21:37:46.956Z,6.50
2019-01-13T21:40:16.175Z,9.70
2019-01-13T21:42:44.804Z,10.37
2019-01-13T21:45:19.041Z,13.03
2019-01-13T21:47:47.722Z,6.47
2019-01-13T21:50:21.293Z,5.70
2019-01-13T21:52:50.192Z,2.67
2019-01-13T21:55:20.014Z,3.47
2019-01-13T21:57:48.579Z,1.67
2019-01-13T22:00:19.952Z,2.90
2019-01-13T22:02:48.644Z,1.67
2019-01-13T22:05:17.362Z,3.17
2019-01-13T22:07:45.976Z,2.37
2019-01-13T22:10:17.069Z,1.60
2019-01-13T22:12:45.768Z,2.10
2019-01-13T22:15:16.384Z,1.93
2019-01-13T22:17:45.075Z,4.40
2019-01-13T22:20:18.828Z,2.37
2019-01-13T22:22:47.553Z,1.50
2019-01-13T22:25:16.343Z,2.93
2019-01-13T22:27:45.059Z,1.43
2019-01-13T22:30:16.224Z,1.90
2019-01-13T22:32:44.882Z,1.40
2019-01-13T22:35:13.586Z,4.37
2019-01-13T22:37:42.304Z,0.90
2019-01-13T22:40:13.296Z,2.93
2019-01-13T22:42:41.949Z,2.67
2019-01-13T22:45:13.308Z,3.80
2019-01-13T22:47:41.890Z,3.17
2019-01-13T22:50:12.683Z,3.70
2019-01-13T22:52:41.264Z,3.33
2019-01-13T22:55:10.756Z,1.73
2019-01-13T22:57:39.408Z,2.27
2019-01-13T23:00:48.656Z,3.10
2019-01-13T23:03:17.480Z,5.07
2019-01-13T23:05:46.104Z,5.13
2019-01-13T23:08:14.687Z,4.80
2019-01-13T23:10:43.301Z,4.63
2019-01-13T23:13:11.952Z,4.00
2019-01-13T23:15:40.578Z,3.60
2019-01-13T23:18:09.155Z,2.93
2019-01-13T23:20:37.776Z,4.13
2019-01-13T23:23:06.424Z,1.97
2019-01-13T23:25:34.980Z,7.63
2019-01-13T23:28:03.625Z,5.40
2019-01-13T23:30:32.174Z,7.23
2019-01-13T23:33:00.760Z,14.17
2019-01-13T23:35:29.388Z,3.97
2019-01-13T23:37:57.945Z,4.03
2019-01-13T23:40:26.534Z,5.27
2019-01-13T23:42:55.087Z,5.93
2019-01-13T23:45:23.811Z,4.23
2019-01-13T23:47:52.378Z,3.77
2019-01-13T23:50:21.151Z,4.47
2019-01-13T23:52:49.705Z,5.20
2019-01-13T23:55:18.362Z,5.63
2019-01-13T23:57:46.913Z,3.37
